Time;durP1;ratioP1;P1;durP2;ratioP2;P2;SDS_P1;SDS_P2;PMS_P1;PMS_P2;Temp;Humidity;BMP_temperature;BMP_pressure;BME280_temperature;BME280_humidity;BME280_pressure;Samples;Min_cycle;Max_cycle;Signal;HPM_P1;HPM_P2
2023/07/04 00:01:17;;;;;;;2.45;1.17;;;20.20;59.90;;;;;;5071774;28;20052;-37
2023/07/04 00:03:45;;;;;;;5.55;1.40;;;;;;;;;;5071463;28;20052;-40
2023/07/04 00:06:13;;;;;;;2.08;1.20;;;19.90;76.80;;;;;;5071715;28;20048;-40
2023/07/04 00:08:41;;;;;;;2.58;1.30;;;19.40;77.40;;;;;;5071314;28;20131;-38
2023/07/04 00:11:08;;;;;;;3.45;1.40;;;;;;;;;;5082332;28;20044;-39
2023/07/04 00:13:36;;;;;;;3.38;1.30;;;19.50;77.40;;;;;;5071523;28;20131;-39
2023/07/04 00:16:05;;;;;;;4.57;1.40;;;20.00;66.00;;;;;;5071677;28;20053;-36
2023/07/04 00:18:32;;;;;;;2.78;1.42;;;20.80;78.10;;;;;;5071563;28;20441;-38
2023/07/04 00:20:59;;;;;;;2.65;1.40;;;19.60;77.00;;;;;;5071544;28;20135;-39
2023/07/04 00:23:27;;;;;;;2.55;1.30;;;20.40;77.20;;;;;;5071286;28;20071;-36
2023/07/04 00:25:55;;;;;;;2.47;1.30;;;20.20;77.00;;;;;;5073215;28;20561;-39
2023/07/04 00:28:22;;;;;;;2.90;1.48;;;19.90;76.80;;;;;;5076597;28;20131;-39
2023/07/04 00:30:52;;;;;;;4.05;1.33;;;;;;;;;;5075196;28;20056;-36
2023/07/04 00:33:18;;;;;;;2.78;1.40;;;19.50;77.60;;;;;;5075345;28;20044;-40
2023/07/04 00:35:45;;;;;;;3.22;1.40;;;;;;;;;;5074783;28;20052;-33
2023/07/04 00:38:13;;;;;;;3.13;1.48;;;;;;;;;;5094614;28;20054;-40
2023/07/04 00:40:40;;;;;;;2.58;1.55;;;;;;;;;;5095453;28;20048;-36
2023/07/04 00:43:09;;;;;;;3.17;1.40;;;20.10;77.30;;;;;;5090686;28;20139;-38
2023/07/04 00:45:38;;;;;;;3.67;1.30;;;20.30;62.90;;;;;;5074833;28;20059;-36
2023/07/04 00:48:05;;;;;;;3.97;1.30;;;19.30;62.20;;;;;;5074907;28;20060;-39
2023/07/04 00:50:34;;;;;;;2.90;1.40;;;20.00;59.80;;;;;;5074771;28;20090;-39
2023/07/04 00:53:04;;;;;;;3.28;1.40;;;19.70;77.60;;;;;;5074865;28;20083;-40
2023/07/04 00:55:31;;;;;;;2.53;1.30;;;19.40;77.40;;;;;;5074720;28;20051;-40
2023/07/04 00:57:57;;;;;;;3.83;1.38;;;19.70;76.90;;;;;;5074808;28;20128;-39
2023/07/04 01:00:26;;;;;;;2.95;1.50;;;19.30;69.10;;;;;;5076082;28;20066;-37
2023/07/04 01:03:01;;;;;;;2.22;1.50;;;20.10;77.80;;;;;;5074420;28;20060;-38
2023/07/04 01:05:33;;;;;;;2.47;1.30;;;20.50;60.60;;;;;;5074754;28;20137;-35
2023/07/04 01:08:00;;;;;;;3.88;1.40;;;19.40;76.70;;;;;;5087265;28;20127;-37
2023/07/04 01:10:30;;;;;;;2.03;1.42;;;20.10;77.40;;;;;;5094571;28;20074;-38
2023/07/04 01:12:58;;;;;;;4.13;1.50;;;21.00;77.50;;;;;;5094786;28;20055;-38
2023/07/04 01:15:28;;;;;;;2.25;1.30;;;20.90;64.30;;;;;;5089389;28;20516;-35
2023/07/04 01:17:56;;;;;;;4.63;1.40;;;19.60;76.80;;;;;;5074392;28;20136;-38
2023/07/04 01:20:23;;;;;;;2.67;1.20;;;19.70;76.80;;;;;;5074395;28;20044;-40
2023/07/04 01:22:55;;;;;;;2.75;1.40;;;19.50;68.10;;;;;;5073879;28;20557;-37
2023/07/04 01:25:27;;;;;;;3.75;1.75;;;19.80;77.30;;;;;;5074388;28;20131;-40
2023/07/04 01:27:59;;;;;;;4.38;1.50;;;20.90;77.40;;;;;;5074317;28;20132;-40
2023/07/04 01:30:27;;;;;;;3.05;1.40;;;19.80;77.30;;;;;;5074420;28;20044;-38
2023/07/04 01:32:54;;;;;;;2.13;1.23;;;20.20;77.10;;;;;;5075297;28;20147;-39
2023/07/04 01:35:22;;;;;;;2.00;1.50;;;20.90;77.50;;;;;;5075181;28;20127;-38
2023/07/04 01:37:49;;;;;;;3.75;1.52;;;;;;;;;;5089287;28;20056;-36
2023/07/04 01:40:16;;;;;;;2.92;1.60;;;19.60;76.80;;;;;;5094205;28;20047;-36
2023/07/04 01:42:43;;;;;;;2.63;1.40;;;20.10;78.00;;;;;;5093642;28;20709;-38
2023/07/04 01:45:12;;;;;;;2.13;1.20;;;19.40;77.10;;;;;;5094482;28;20086;-40
2023/07/04 01:47:39;;;;;;;2.70;1.20;;;;;;;;;;5087773;28;20130;-37
2023/07/04 01:50:06;;;;;;;2.28;1.30;;;19.90;77.80;;;;;;5081671;28;20123;-38
2023/07/04 01:52:33;;;;;;;2.70;1.55;;;;;;;;;;5073611;28;20536;-34
2023/07/04 01:55:00;;;;;;;2.78;1.60;;;19.80;77.30;;;;;;5073662;28;20054;-39
2023/07/04 01:57:27;;;;;;;3.28;1.40;;;20.10;66.90;;;;;;5093082;28;20048;-36
2023/07/04 01:59:54;;;;;;;2.78;1.40;;;;;;;;;;5094052;28;20048;-35
2023/07/04 02:02:22;;;;;;;3.55;1.38;;;19.80;76.90;;;;;;5092250;28;20050;-39
2023/07/04 02:04:49;;;;;;;3.28;1.38;;;20.50;77.70;;;;;;5093509;28;20527;-37
2023/07/04 02:07:15;;;;;;;3.38;1.40;;;21.00;77.60;;;;;;5094164;28;20131;-39
2023/07/04 02:09:42;;;;;;;3.22;1.67;;;19.70;64.40;;;;;;5093693;28;20460;-36
2023/07/04 02:12:10;;;;;;;3.05;1.15;;;19.70;76.90;;;;;;5093773;28;20139;-38
2023/07/04 02:14:36;;;;;;;2.17;1.40;;;18.80;70.40;;;;;;5093741;28;20048;-35
2023/07/04 02:17:03;;;;;;;3.72;1.40;;;20.60;77.40;;;;;;5092942;28;20511;-36
2023/07/04 02:19:31;;;;;;;2.85;1.30;;;19.90;59.80;;;;;;5082641;28;20078;-39
2023/07/04 02:21:58;;;;;;;3.92;1.27;;;;;;;;;;5073243;28;20055;-38
2023/07/04 02:24:25;;;;;;;3.17;1.50;;;20.00;77.80;;;;;;5072946;28;20083;-39
2023/07/04 02:26:52;;;;;;;3.17;1.30;;;20.10;77.20;;;;;;5072962;28;20442;-40
2023/07/04 02:29:19;;;;;;;3.20;1.48;;;;;;;;;;5073277;28;20127;-35
2023/07/04 02:31:45;;;;;;;2.15;1.25;;;20.20;77.10;;;;;;5079809;28;20065;-39
2023/07/04 02:34:12;;;;;;;3.20;1.48;;;;;;;;;;5093097;28;20131;-38
2023/07/04 02:36:40;;;;;;;2.78;1.50;;;20.90;77.50;;;;;;5092451;28;20127;-37
2023/07/04 02:39:07;;;;;;;1.88;1.30;;;19.60;76.90;;;;;;5093155;28;20468;-38
2023/07/04 02:41:34;;;;;;;2.97;1.40;;;19.80;77.00;;;;;;5093466;28;20409;-38
2023/07/04 02:44:01;;;;;;;3.20;1.55;;;;;;;;;;5092544;28;20478;-35
2023/07/04 02:46:28;;;;;;;4.35;1.60;;;20.30;77.50;;;;;;5093298;28;20052;-39
2023/07/04 02:48:55;;;;;;;1.92;1.33;;;20.00;77.50;;;;;;5075211;28;20131;-40
2023/07/04 02:51:21;;;;;;;3.67;1.70;;;19.40;74.80;;;;;;5072776;28;20127;-39
2023/07/04 02:53:50;;;;;;;2.65;1.40;;;;;;;;;;5072245;28;20519;-35
2023/07/04 02:56:17;;;;;;;4.20;1.65;;;20.10;77.20;;;;;;5073030;28;20127;-40
2023/07/04 02:58:44;;;;;;;3.33;1.40;;;;;;;;;;5072681;28;20055;-38
2023/07/04 03:01:10;;;;;;;3.83;1.40;;;20.90;77.90;;;;;;5072757;28;20053;-39
2023/07/04 03:03:37;;;;;;;2.90;1.30;;;19.20;76.80;;;;;;5073731;28;20444;-37
2023/07/04 03:06:04;;;;;;;3.90;1.95;;;20.10;67.30;;;;;;5072002;28;20076;-37
2023/07/04 03:08:31;;;;;;;3.13;1.50;;;18.70;71.60;;;;;;5072420;28;20493;-40
2023/07/04 03:10:59;;;;;;;3.10;1.35;;;19.40;62.10;;;;;;5086284;28;20123;-39
2023/07/04 03:13:26;;;;;;;3.20;1.30;;;19.70;63.00;;;;;;5092476;28;20048;-35
2023/07/04 03:15:53;;;;;;;2.50;1.52;;;19.50;77.40;;;;;;5092362;28;20048;-39
2023/07/04 03:18:20;;;;;;;2.60;1.30;;;;;;;;;;5092506;28;20507;-40
2023/07/04 03:20:46;;;;;;;3.05;1.40;;;19.60;72.50;;;;;;5083316;28;20485;-38
2023/07/04 03:23:13;;;;;;;2.47;1.40;;;19.60;77.90;;;;;;5072128;28;20127;-38
2023/07/04 03:25:40;;;;;;;3.95;1.40;;;20.10;77.30;;;;;;5072002;28;20052;-39
2023/07/04 03:28:08;;;;;;;2.97;1.40;;;19.10;66.30;;;;;;5072158;28;20131;-36
2023/07/04 03:30:35;;;;;;;1.88;1.15;;;19.60;77.10;;;;;;5072594;28;20040;-36
2023/07/04 03:33:02;;;;;;;2.95;1.48;;;20.10;77.50;;;;;;5092116;28;20531;-38
2023/07/04 03:35:29;;;;;;;2.55;1.17;;;;;;;;;;5088616;28;20131;-35
2023/07/04 03:37:56;;;;;;;4.05;1.60;;;19.70;77.50;;;;;;5088287;28;20138;-36
2023/07/04 03:40:23;;;;;;;2.42;1.33;;;;;;;;;;5092143;28;20052;-37
2023/07/04 03:42:50;;;;;;;3.22;1.38;;;;;;;;;;5091992;28;20055;-38
2023/07/04 03:45:18;;;;;;;4.53;1.70;;;19.80;60.00;;;;;;5092130;28;20127;-38
2023/07/04 03:47:45;;;;;;;3.88;1.65;;;;;;;;;;5091810;28;20080;-36
2023/07/04 03:50:13;;;;;;;2.67;1.40;;;19.50;77.10;;;;;;5092215;28;20127;-39
2023/07/04 03:52:40;;;;;;;2.88;1.45;;;19.90;77.30;;;;;;5086933;28;20048;-37
2023/07/04 03:55:08;;;;;;;2.78;1.50;;;19.80;60.00;;;;;;5078370;28;20143;-38
2023/07/04 03:57:34;;;;;;;5.22;1.50;;;19.90;78.20;;;;;;5071936;28;20055;-39
2023/07/04 04:00:02;;;;;;;2.72;1.45;;;;;;;;;;5073291;28;20067;-36
2023/07/04 04:02:30;;;;;;;3.40;1.58;;;19.80;60.00;;;;;;5078432;28;20088;-37
2023/07/04 04:04:57;;;;;;;3.55;1.40;;;;;;;;;;5078609;28;20054;-39
2023/07/04 04:07:24;;;;;;;2.83;1.40;;;19.70;77.20;;;;;;5078523;28;20044;-40
2023/07/04 04:09:51;;;;;;;3.00;1.52;;;;;;;;;;5092380;28;20148;-34
2023/07/04 04:12:18;;;;;;;2.63;1.30;;;19.00;72.90;;;;;;5098572;28;20475;-39
2023/07/04 04:14:45;;;;;;;2.05;1.30;;;19.30;77.10;;;;;;5098459;28;20130;-39
2023/07/04 04:17:13;;;;;;;1.83;1.23;;;;;;;;;;5098548;28;20047;-35
2023/07/04 04:19:41;;;;;;;3.17;1.50;;;19.90;78.30;;;;;;5098546;28;20119;-38
2023/07/04 04:22:08;;;;;;;2.30;1.48;;;;;;;;;;5098239;28;20483;-36
2023/07/04 04:24:37;;;;;;;2.30;1.48;;;;;;;;;;5088129;28;20048;-36
2023/07/04 04:27:08;;;;;;;3.92;1.48;;;19.90;61.00;;;;;;5080688;28;20109;-37
2023/07/04 04:29:35;;;;;;;2.58;1.55;;;19.40;75.30;;;;;;5098409;28;20131;-40
2023/07/04 04:32:02;;;;;;;3.75;1.40;;;;;;;;;;5098697;28;20567;-37
2023/07/04 04:34:28;;;;;;;3.13;1.45;;;19.90;65.10;;;;;;5098358;28;20135;-36
2023/07/04 04:36:56;;;;;;;3.45;1.50;;;19.70;60.10;;;;;;5098090;28;20127;-37
2023/07/04 04:39:23;;;;;;;3.53;1.40;;;20.70;78.20;;;;;;5096536;28;20175;-39
2023/07/04 04:41:52;;;;;;;3.80;1.63;;;19.50;78.00;;;;;;5077941;28;20044;-36
2023/07/04 04:44:19;;;;;;;2.30;1.33;;;20.40;66.20;;;;;;5077613;28;20048;-38
2023/07/04 04:46:48;;;;;;;3.35;1.45;;;;;;;;;;5078132;28;20527;-34
2023/07/04 04:49:17;;;;;;;3.17;1.55;;;19.00;76.90;;;;;;5077975;28;20501;-39
2023/07/04 04:51:44;;;;;;;2.33;1.65;;;20.00;77.90;;;;;;5078239;28;20408;-37
2023/07/04 04:54:12;;;;;;;1.70;1.25;;;19.70;60.10;;;;;;5077678;28;20090;-36
2023/07/04 04:56:40;;;;;;;2.65;1.40;;;19.50;62.40;;;;;;5078998;28;20135;-36
2023/07/04 04:59:07;;;;;;;2.90;1.40;;;20.20;77.90;;;;;;5078221;28;20052;-37
2023/07/04 05:01:36;;;;;;;3.47;1.50;;;19.70;67.70;;;;;;5077999;28;20040;-37
2023/07/04 05:04:03;;;;;;;2.40;1.42;;;19.20;77.50;;;;;;5082830;28;20094;-37
2023/07/04 05:06:29;;;;;;;3.42;1.33;;;18.70;63.80;;;;;;5098155;28;20556;-37
2023/07/04 05:08:56;;;;;;;2.47;1.30;;;19.60;78.20;;;;;;5098010;28;20127;-39
2023/07/04 05:11:24;;;;;;;3.80;1.50;;;20.20;63.10;;;;;;5095043;28;20127;-39
2023/07/04 05:13:51;;;;;;;3.13;1.45;;;19.20;66.70;;;;;;5074056;28;20118;-37
2023/07/04 05:16:19;;;;;;;2.17;1.25;;;19.40;67.50;;;;;;5077957;28;20055;-36
2023/07/04 05:18:46;;;;;;;2.13;1.30;;;19.70;60.20;;;;;;5078178;28;20131;-35
2023/07/04 05:21:13;;;;;;;3.03;1.77;;;19.50;77.40;;;;;;5074318;28;20050;-39
2023/07/04 05:23:41;;;;;;;3.15;1.45;;;19.40;72.40;;;;;;5079557;28;20123;-36
2023/07/04 05:26:09;;;;;;;2.65;1.60;;;20.20;65.90;;;;;;5094874;28;20131;-37
2023/07/04 05:28:37;;;;;;;2.63;1.30;;;19.70;60.20;;;;;;5083501;28;20569;-35
2023/07/04 05:31:05;;;;;;;2.58;1.40;;;19.70;60.20;;;;;;5076985;28;20044;-36
2023/07/04 05:33:32;;;;;;;2.80;1.40;;;18.90;77.90;;;;;;5073823;28;20142;-38
2023/07/04 05:36:06;;;;;;;5.25;1.40;;;20.70;78.00;;;;;;5072972;28;20456;-37
2023/07/04 05:38:33;;;;;;;2.05;1.20;;;;;;;;;;5091723;28;20131;-39
2023/07/04 05:41:00;;;;;;;3.58;1.40;;;19.70;77.90;;;;;;5080184;28;20048;-38
2023/07/04 05:43:27;;;;;;;3.08;1.27;;;18.90;69.10;;;;;;5074986;28;20363;-37
2023/07/04 05:45:55;;;;;;;3.22;1.55;;;19.90;78.00;;;;;;5073970;28;20131;-40
2023/07/04 05:48:22;;;;;;;2.75;1.52;;;;;;;;;;5074220;28;20048;-40
2023/07/04 05:50:53;;;;;;;2.85;1.50;;;19.90;77.90;;;;;;5079443;28;20119;-40
2023/07/04 05:53:22;;;;;;;2.78;1.33;;;18.90;77.20;;;;;;5093895;28;20131;-40
2023/07/04 05:55:49;;;;;;;2.63;1.42;;;19.70;65.00;;;;;;5094120;28;20443;-37
2023/07/04 05:58:16;;;;;;;2.13;1.23;;;19.50;77.80;;;;;;5094225;28;20048;-40
2023/07/04 06:00:43;;;;;;;2.67;1.30;;;;;;;;;;5079827;28;20501;-36
2023/07/04 06:03:11;;;;;;;2.33;1.33;;;19.80;60.30;;;;;;5073541;28;20537;-40
2023/07/04 06:05:39;;;;;;;2.63;1.50;;;19.60;77.40;;;;;;5073700;28;20056;-42
2023/07/04 06:08:06;;;;;;;4.20;1.42;;;19.40;77.30;;;;;;5073560;28;20052;-42
2023/07/04 06:10:33;;;;;;;2.75;1.27;;;;;;;;;;5083891;28;20127;-36
2023/07/04 06:13:00;;;;;;;2.35;1.42;;;19.90;77.60;;;;;;5089561;28;20489;-40
2023/07/04 06:15:27;;;;;;;2.40;1.35;;;19.30;77.70;;;;;;5091875;28;20048;-40
2023/07/04 06:17:54;;;;;;;2.60;1.40;;;19.60;71.00;;;;;;5093438;28;20155;-39
2023/07/04 06:20:22;;;;;;;3.47;1.50;;;20.20;77.70;;;;;;5093433;28;20560;-39
2023/07/04 06:22:50;;;;;;;3.03;1.48;;;;;;;;;;5093121;28;20048;-40
2023/07/04 06:25:17;;;;;;;3.03;1.48;;;19.40;72.10;;;;;;5093631;28;20127;-40
2023/07/04 06:27:44;;;;;;;3.17;1.45;;;19.40;77.30;;;;;;5093283;28;20192;-39
2023/07/04 06:30:12;;;;;;;3.33;1.25;;;20.20;78.10;;;;;;5092731;28;20052;-40
2023/07/04 06:32:39;;;;;;;3.67;1.33;;;19.70;77.70;;;;;;5090004;28;20119;-40
2023/07/04 06:35:07;;;;;;;4.63;1.75;;;19.70;60.20;;;;;;5083109;28;20074;-35
2023/07/04 06:37:35;;;;;;;2.92;1.33;;;19.60;77.50;;;;;;5080727;28;20132;-40
2023/07/04 06:40:02;;;;;;;1.83;1.08;;;20.00;77.60;;;;;;5078245;28;20048;-41
2023/07/04 06:42:28;;;;;;;2.95;1.40;;;19.60;63.30;;;;;;5072546;28;20128;-37
2023/07/04 06:44:55;;;;;;;2.40;1.20;;;20.00;77.50;;;;;;5083134;28;20044;-41
2023/07/04 06:47:22;;;;;;;2.45;1.20;;;;;;;;;;5093002;28;20131;-36
2023/07/04 06:49:49;;;;;;;4.18;1.40;;;18.80;73.00;;;;;;5092984;28;20584;-42
2023/07/04 06:52:15;;;;;;;1.80;1.17;;;20.80;78.10;;;;;;5092842;28;20044;-40
2023/07/04 06:54:45;;;;;;;1.73;1.10;;;20.10;77.70;;;;;;5092829;28;20131;-40
2023/07/04 06:57:12;;;;;;;1.80;1.20;;;19.30;77.60;;;;;;5092686;28;20048;-41
2023/07/04 06:59:39;;;;;;;2.35;1.17;;;;;;;;;;5091179;28;20131;-36
2023/07/04 07:02:07;;;;;;;1.70;1.13;;;19.70;77.70;;;;;;5073798;28;20080;-40
2023/07/04 07:04:33;;;;;;;1.95;1.15;;;19.20;77.90;;;;;;5072288;28;20051;-40
2023/07/04 07:07:00;;;;;;;1.70;1.10;;;19.50;77.20;;;;;;5075790;28;20142;-40
2023/07/04 07:09:30;;;;;;;2.85;1.33;;;;;;;;;;5091640;28;20069;-35
2023/07/04 07:11:58;;;;;;;2.33;1.08;;;20.30;70.20;;;;;;5091573;28;20071;-40
2023/07/04 07:14:26;;;;;;;3.53;1.63;;;;;;;;;;5091520;28;20145;-37
2023/07/04 07:16:56;;;;;;;2.33;1.20;;;20.50;60.80;;;;;;5090088;28;20048;-36
2023/07/04 07:19:23;;;;;;;3.28;1.42;;;19.40;65.50;;;;;;5091203;28;20083;-39
2023/07/04 07:21:50;;;;;;;2.20;1.20;;;19.80;72.30;;;;;;5091435;28;20048;-40
2023/07/04 07:24:16;;;;;;;1.85;1.20;;;20.80;70.80;;;;;;5091003;28;20140;-40
2023/07/04 07:26:43;;;;;;;2.42;1.30;;;;;;;;;;5081850;28;20040;-39
2023/07/04 07:29:11;;;;;;;2.38;1.20;;;20.20;78.00;;;;;;5073534;28;20050;-40
2023/07/04 07:31:38;;;;;;;2.45;1.15;;;20.20;78.10;;;;;;5075396;28;20119;-39
2023/07/04 07:34:05;;;;;;;2.20;1.10;;;19.80;77.90;;;;;;5077914;28;20051;-40
2023/07/04 07:36:33;;;;;;;2.30;1.10;;;19.80;60.20;;;;;;5081132;28;20412;-36
2023/07/04 07:39:02;;;;;;;3.22;1.15;;;20.00;77.90;;;;;;5081798;28;20127;-40
2023/07/04 07:41:30;;;;;;;1.83;1.08;;;19.60;68.00;;;;;;5080323;28;20040;-40
2023/07/04 07:43:57;;;;;;;2.58;1.10;;;;;;;;;;5077233;28;20127;-36
2023/07/04 07:46:25;;;;;;;2.83;1.33;;;18.90;77.00;;;;;;5077754;28;20101;-40
2023/07/04 07:48:51;;;;;;;1.85;1.20;;;19.50;77.30;;;;;;5073567;28;20049;-38
2023/07/04 07:51:19;;;;;;;1.50;1.17;;;19.80;60.00;;;;;;5069179;28;20050;-36
2023/07/04 07:53:47;;;;;;;2.35;1.13;;;19.80;60.00;;;;;;5073462;28;20126;-34
2023/07/04 07:56:18;;;;;;;2.90;1.40;;;19.40;77.10;;;;;;5089482;28;20048;-40
2023/07/04 07:58:45;;;;;;;2.28;1.50;;;19.60;77.10;;;;;;5084736;28;20041;-40
2023/07/04 08:01:13;;;;;;;2.28;1.13;;;19.80;60.00;;;;;;5069837;28;20079;-36
2023/07/04 08:03:41;;;;;;;2.38;1.00;;;19.80;59.90;;;;;;5069493;28;20256;-39
2023/07/04 08:06:08;;;;;;;1.70;1.00;;;20.10;77.90;;;;;;5070189;28;20127;-40
2023/07/04 08:08:35;;;;;;;2.03;1.10;;;;;;;;;;5070304;28;20132;-35
2023/07/04 08:11:02;;;;;;;2.22;1.10;;;19.90;77.50;;;;;;5083889;28;20070;-41
2023/07/04 08:13:28;;;;;;;2.03;1.00;;;19.30;77.20;;;;;;5081334;28;20135;-41
2023/07/04 08:15:55;;;;;;;2.08;1.10;;;19.90;60.70;;;;;;5071791;28;20121;-38
2023/07/04 08:18:22;;;;;;;2.97;1.45;;;20.10;66.20;;;;;;5081388;28;20063;-39
2023/07/04 08:20:57;;;;;;;1.75;1.00;;;19.80;59.80;;;;;;5077993;28;20056;-41
2023/07/04 08:23:24;;;;;;;2.90;1.30;;;20.60;77.90;;;;;;5085961;28;20578;-31
2023/07/04 08:25:51;;;;;;;1.38;0.90;;;;;;;;;;5073130;28;20045;-36
2023/07/04 08:28:18;;;;;;;2.67;1.10;;;19.00;61.20;;;;;;5085820;28;20130;-33
2023/07/04 08:30:45;;;;;;;2.05;1.40;;;19.50;76.90;;;;;;5081546;28;20051;-32
2023/07/04 08:33:17;;;;;;;4.38;1.10;;;19.90;59.70;;;;;;5080524;28;20083;-34
2023/07/04 08:35:44;;;;;;;2.28;1.10;;;;;;;;;;5079646;28;20544;-36
2023/07/04 08:38:12;;;;;;;2.58;1.00;;;20.20;77.80;;;;;;5090226;28;20557;-31
2023/07/04 08:40:42;;;;;;;2.80;1.35;;;20.80;77.30;;;;;;5079368;28;20222;-32
2023/07/04 08:43:09;;;;;;;1.88;1.05;;;;;;;;;;5076296;28;20046;-31
2023/07/04 08:45:36;;;;;;;2.75;1.30;;;19.90;67.70;;;;;;5078741;28;20051;-33
2023/07/04 08:48:03;;;;;;;2.20;1.05;;;;;;;;;;5083857;28;20051;-32
2023/07/04 08:50:31;;;;;;;2.47;1.30;;;19.80;59.20;;;;;;5083350;28;20052;-35
2023/07/04 08:53:02;;;;;;;1.52;0.98;;;19.80;59.10;;;;;;5083926;28;20400;-35
2023/07/04 08:55:31;;;;;;;3.90;1.30;;;19.80;59.00;;;;;;5081210;28;20131;-33
2023/07/04 08:57:59;;;;;;;1.63;1.10;;;19.50;76.30;;;;;;5079009;28;20040;-32
2023/07/04 09:00:29;;;;;;;2.00;1.10;;;19.80;76.70;;;;;;5080895;28;20446;-32
2023/07/04 09:03:13;;;;;;;2.65;1.20;;;20.00;76.50;;;;;;5081182;28;20123;-30
2023/07/04 09:05:47;;;;;;;3.28;1.20;;;19.80;77.10;;;;;;5074305;28;20127;-32
2023/07/04 09:08:17;;;;;;;3.60;1.30;;;20.10;63.40;;;;;;5076290;28;20049;-32
2023/07/04 09:10:47;;;;;;;1.80;1.17;;;19.40;76.50;;;;;;5085821;28;20123;-31
2023/07/04 09:13:16;;;;;;;2.58;1.10;;;19.90;76.60;;;;;;5083113;28;20047;-32
2023/07/04 09:15:44;;;;;;;2.83;1.20;;;19.90;59.00;;;;;;5083260;28;20052;-35
2023/07/04 09:18:15;;;;;;;3.25;1.23;;;19.70;76.30;;;;;;5078002;28;20195;-31
2023/07/04 09:20:43;;;;;;;2.65;1.40;;;19.50;69.00;;;;;;5074532;28;20055;-35
2023/07/04 09:23:12;;;;;;;3.92;1.13;;;19.70;77.00;;;;;;5073603;28;20127;-32
2023/07/04 09:25:39;;;;;;;2.70;1.23;;;;;;;;;;5074295;28;20079;-35
2023/07/04 09:28:08;;;;;;;4.95;1.20;;;19.90;76.70;;;;;;5078870;28;20059;-31
2023/07/04 09:30:34;;;;;;;3.05;1.25;;;19.80;76.00;;;;;;5091781;28;20393;-33
2023/07/04 09:33:01;;;;;;;5.07;1.20;;;;;;;;;;5082703;28;20044;-36
2023/07/04 09:35:32;;;;;;;4.45;1.35;;;19.20;59.00;;;;;;5094666;28;20131;-33
2023/07/04 09:38:00;;;;;;;2.58;1.10;;;19.60;77.30;;;;;;5080940;28;20482;-33
2023/07/04 09:40:41;;;;;;;5.25;1.38;;;20.70;77.60;;;;;;5094687;28;20136;-31
2023/07/04 09:43:09;;;;;;;4.22;1.10;;;20.40;66.90;;;;;;5093815;28;20083;-33
2023/07/04 09:45:36;;;;;;;2.35;1.10;;;19.10;76.20;;;;;;5094143;28;20460;-32
2023/07/04 09:48:04;;;;;;;1.73;1.10;;;20.50;59.80;;;;;;5093191;28;20138;-33
2023/07/04 09:50:32;;;;;;;2.92;1.30;;;19.90;77.00;;;;;;5094248;28;20568;-32
2023/07/04 09:53:03;;;;;;;5.38;1.33;;;20.30;77.10;;;;;;5093812;28;20536;-32
2023/07/04 09:55:30;;;;;;;2.97;1.05;;;20.00;59.40;;;;;;5093933;28;20048;-35
2023/07/04 09:58:18;;;;;;;3.30;1.33;;;20.30;76.60;;;;;;5078064;28;20143;-32
2023/07/04 10:00:45;;;;;;;4.35;1.27;;;19.60;77.00;;;;;;5073443;28;20044;-32
2023/07/04 10:03:12;;;;;;;1.58;0.95;;;19.20;76.20;;;;;;5073602;28;20053;-31
2023/07/04 10:05:39;;;;;;;1.75;1.00;;;20.10;63.40;;;;;;5083990;28;20542;-32
2023/07/04 10:08:07;;;;;;;2.83;1.30;;;20.00;76.40;;;;;;5093987;28;20135;-32
2023/07/04 10:10:36;;;;;;;2.03;1.08;;;20.20;76.70;;;;;;5090258;28;20058;-32
2023/07/04 10:13:03;;;;;;;2.17;1.08;;;;;;;;;;5072979;28;20056;-37
2023/07/04 10:15:39;;;;;;;2.50;1.13;;;19.80;75.90;;;;;;5073527;28;20101;-32
2023/07/04 10:18:06;;;;;;;2.10;1.30;;;21.00;76.80;;;;;;5081146;28;20098;-32
2023/07/04 10:20:37;;;;;;;4.07;1.13;;;21.30;59.30;;;;;;5084189;28;20083;-35
2023/07/04 10:23:04;;;;;;;2.40;1.20;;;20.30;76.30;;;;;;5079825;28;20140;-31
2023/07/04 10:25:31;;;;;;;5.07;1.20;;;;;;;;;;5073111;28;20144;-32
2023/07/04 10:28:06;;;;;;;3.47;1.35;;;19.90;75.90;;;;;;5073057;28;20051;-33
2023/07/04 10:30:33;;;;;;;2.63;1.35;;;;;;;;;;5073314;28;20049;-32
2023/07/04 10:33:03;;;;;;;3.03;1.35;;;20.60;65.20;;;;;;5072924;28;20132;-32
2023/07/04 10:35:33;;;;;;;2.63;1.35;;;20.60;75.80;;;;;;5074606;28;20094;-32
2023/07/04 10:38:01;;;;;;;2.60;1.30;;;20.50;76.20;;;;;;5092687;28;20056;-32
2023/07/04 10:40:28;;;;;;;3.05;1.40;;;20.00;74.30;;;;;;5093321;28;20172;-34
2023/07/04 10:42:57;;;;;;;3.67;1.40;;;21.40;76.60;;;;;;5092656;28;20489;-31
2023/07/04 10:45:24;;;;;;;2.38;1.13;;;;;;;;;;5092975;28;20052;-35
2023/07/04 10:47:53;;;;;;;3.85;1.40;;;20.10;76.50;;;;;;5083981;28;20135;-31
2023/07/04 10:50:22;;;;;;;3.28;1.30;;;20.40;58.40;;;;;;5082321;28;20068;-37
2023/07/04 10:52:49;;;;;;;3.22;1.17;;;20.70;70.60;;;;;;5077881;28;20079;-32
2023/07/04 10:55:17;;;;;;;3.30;1.48;;;20.50;58.50;;;;;;5082308;28;20046;-34
2023/07/04 10:57:45;;;;;;;4.80;1.48;;;20.00;75.50;;;;;;5080596;28;20040;-31
2023/07/04 11:00:17;;;;;;;4.70;1.38;;;19.60;75.40;;;;;;5081355;28;20472;-33
2023/07/04 11:02:46;;;;;;;5.65;1.45;;;20.60;58.80;;;;;;5082548;28;20048;-33
2023/07/04 11:05:15;;;;;;;2.75;1.35;;;20.70;75.40;;;;;;5085790;28;20124;-33
2023/07/04 11:07:44;;;;;;;2.20;1.15;;;19.70;66.50;;;;;;5081491;28;20044;-31
2023/07/04 11:10:12;;;;;;;2.80;1.30;;;21.60;67.40;;;;;;5075370;28;20486;-32
2023/07/04 11:12:39;;;;;;;2.40;1.20;;;;;;;;;;5081818;28;20123;-34
2023/07/04 11:15:08;;;;;;;3.83;1.33;;;21.00;58.60;;;;;;5080566;28;20044;-35
2023/07/04 11:17:35;;;;;;;2.70;1.30;;;21.00;61.20;;;;;;5082100;28;20055;-32
2023/07/04 11:20:10;;;;;;;3.55;1.52;;;21.20;58.40;;;;;;5082465;28;20502;-35
2023/07/04 11:22:39;;;;;;;2.75;1.30;;;21.30;58.30;;;;;;5079858;28;20135;-32
2023/07/04 11:25:32;;;;;;;3.08;1.10;;;22.40;75.80;;;;;;5082566;28;20075;-33
2023/07/04 11:28:15;;;;;;;3.83;1.27;;;22.70;61.30;;;;;;5079914;28;20083;-33
2023/07/04 11:30:44;;;;;;;2.47;1.23;;;21.00;75.50;;;;;;5082617;28;20071;-32
2023/07/04 11:33:40;;;;;;;1.88;1.20;;;21.40;63.40;;;;;;5080919;28;20051;-33
2023/07/04 11:36:08;;;;;;;4.05;1.27;;;21.80;57.90;;;;;;5077886;28;20128;-36
2023/07/04 11:38:36;;;;;;;2.33;1.20;;;;;;;;;;5079052;28;20130;-35
2023/07/04 11:41:04;;;;;;;3.58;1.20;;;22.20;75.00;;;;;;5081488;28;20059;-39
2023/07/04 11:43:34;;;;;;;1.45;0.95;;;22.10;57.60;;;;;;5091927;28;20051;-38
2023/07/04 11:46:01;;;;;;;2.25;1.20;;;;;;;;;;5091195;28;20151;-38
2023/07/04 11:48:30;;;;;;;2.30;1.00;;;22.30;73.40;;;;;;5092134;28;20090;-39
2023/07/04 11:51:01;;;;;;;2.17;1.30;;;22.60;75.10;;;;;;5091752;28;20086;-39
2023/07/04 11:53:38;;;;;;;2.60;1.42;;;22.30;57.60;;;;;;5091778;28;20048;-37
2023/07/04 11:56:14;;;;;;;2.92;1.50;;;22.60;74.30;;;;;;5075644;28;20550;-41
2023/07/04 11:58:41;;;;;;;2.22;1.10;;;;;;;;;;5087525;28;20052;-41
2023/07/04 12:01:08;;;;;;;1.73;1.10;;;22.40;73.90;;;;;;5091816;28;20059;-39
2023/07/04 12:03:56;;;;;;;2.30;1.17;;;22.50;57.80;;;;;;5091585;28;20143;-38
2023/07/04 12:06:57;;;;;;;2.97;1.35;;;22.20;58.40;;;;;;5091969;28;20087;-35
2023/07/04 12:09:30;;;;;;;3.92;1.10;;;22.30;74.90;;;;;;5079895;28;20052;-39
2023/07/04 12:11:58;;;;;;;3.65;1.52;;;22.60;58.70;;;;;;5083326;28;20044;-37
2023/07/04 12:14:25;;;;;;;2.30;1.10;;;;;;;;;;5070216;28;20132;-36
2023/07/04 12:16:51;;;;;;;2.55;1.15;;;23.20;65.70;;;;;;5069726;28;20052;-35
2023/07/04 12:19:18;;;;;;;2.58;1.30;;;22.50;57.40;;;;;;5069578;28;20076;-39
2023/07/04 12:21:47;;;;;;;2.72;1.10;;;23.00;74.00;;;;;;5071346;28;20127;-40
2023/07/04 12:24:17;;;;;;;2.45;1.17;;;22.10;73.80;;;;;;5073314;28;20128;-38
2023/07/04 12:26:44;;;;;;;7.40;1.33;;;22.40;68.90;;;;;;5073630;28;20048;-39
2023/07/04 12:29:12;;;;;;;3.20;1.17;;;22.50;57.40;;;;;;5074389;28;20132;-36
2023/07/04 12:31:39;;;;;;;2.90;1.30;;;;;;;;;;5075623;28;20139;-40
2023/07/04 12:34:06;;;;;;;2.00;1.20;;;23.80;74.30;;;;;;5075104;28;20049;-37
2023/07/04 12:36:37;;;;;;;2.30;1.20;;;;;;;;;;5080993;28;20123;-40
2023/07/04 12:39:04;;;;;;;2.83;1.50;;;22.60;74.10;;;;;;5095418;28;20058;-40
2023/07/04 12:41:31;;;;;;;3.35;1.30;;;21.90;73.70;;;;;;5095775;28;20105;-40
2023/07/04 12:44:00;;;;;;;2.65;1.27;;;22.50;74.50;;;;;;5095349;28;20066;-38
2023/07/04 12:46:29;;;;;;;2.92;1.20;;;22.20;74.40;;;;;;5094984;28;20055;-41
2023/07/04 12:48:56;;;;;;;1.63;1.00;;;22.20;64.20;;;;;;5095590;28;20134;-38
2023/07/04 12:51:23;;;;;;;2.20;1.20;;;22.50;57.40;;;;;;5095429;28;20474;-38
2023/07/04 12:53:50;;;;;;;2.28;1.30;;;23.60;74.10;;;;;;5094416;28;20455;-41
2023/07/04 12:56:17;;;;;;;2.90;1.10;;;22.30;73.60;;;;;;5095539;28;20131;-38
2023/07/04 12:58:45;;;;;;;2.13;1.15;;;22.40;57.40;;;;;;5095289;28;20516;-37
2023/07/04 13:01:14;;;;;;;1.98;1.08;;;;;;;;;;5094884;28;20131;-36
2023/07/04 13:03:43;;;;;;;2.97;1.35;;;23.50;74.30;;;;;;5094685;28;20503;-39
2023/07/04 13:06:12;;;;;;;1.95;1.25;;;22.50;57.50;;;;;;5094922;28;20127;-36
2023/07/04 13:08:44;;;;;;;2.97;1.33;;;22.20;74.30;;;;;;5095481;28;20048;-40
2023/07/04 13:11:11;;;;;;;2.88;1.10;;;23.50;74.40;;;;;;5095211;28;20057;-39